createdAt,value
2019-01-14T00:01:42.408Z,98841.35
2019-01-14T00:04:57.466Z,98763.65
2019-01-14T00:08:19.964Z,98846.34
2019-01-14T00:11:35.222Z,98851.88
2019-01-14T00:14:58.019Z,98798.48
2019-01-14T00:18:13.715Z,98863.44
2019-01-14T00:21:36.092Z,98839.45
2019-01-14T00:24:51.662Z,98864.63
2019-01-14T00:28:14.111Z,98870.20
2019-01-14T00:31:30.237Z,98870.59
2019-01-14T00:34:46.326Z,98868.86
2019-01-14T00:38:09.241Z,98873.25
2019-01-14T00:41:12.158Z,98881.37
2019-01-14T00:44:28.212Z,98877.27
2019-01-14T00:47:50.921Z,98891.89
2019-01-14T00:51:06.961Z,98893.97
2019-01-14T00:54:29.445Z,98892.05
2019-01-14T00:57:45.611Z,98911.06
2019-01-14T01:01:08.300Z,98909.17
2019-01-14T01:04:24.127Z,98916.90
2019-01-14T01:07:46.508Z,98916.95
2019-01-14T01:11:01.823Z,98919.05
2019-01-14T01:14:25.288Z,98925.56
2019-01-14T01:17:40.484Z,98932.41
2019-01-14T01:24:45.780Z,98908.23
2019-01-14T01:28:08.465Z,98963.30
2019-01-14T01:31:24.146Z,98976.09
2019-01-14T01:34:40.002Z,98897.53
2019-01-14T01:37:55.152Z,98980.75
2019-01-14T01:41:10.498Z,98981.50
2019-01-14T01:44:32.905Z,98948.16
2019-01-14T01:47:48.267Z,98995.09
2019-01-14T01:51:03.581Z,98995.72
2019-01-14T01:54:25.962Z,99009.64
2019-01-14T01:57:41.087Z,99023.25
2019-01-14T02:01:04.163Z,99022.81
2019-01-14T02:04:19.675Z,99030.10
2019-01-14T02:07:42.076Z,99034.44
2019-01-14T02:10:57.167Z,99029.52
2019-01-14T02:18:16.014Z,99059.88
2019-01-14T02:21:38.725Z,99073.72
2019-01-14T02:24:54.238Z,99057.81
2019-01-14T02:28:16.695Z,99060.87
2019-01-14T02:31:32.624Z,99084.49
2019-01-14T02:34:48.252Z,99084.80
2019-01-14T02:38:04.224Z,99096.05
2019-01-14T02:41:27.622Z,99093.47
2019-01-14T02:44:43.427Z,99104.98
2019-01-14T02:48:05.824Z,99109.98
2019-01-14T02:51:29.277Z,99113.64
2019-01-14T02:54:44.552Z,99117.66
2019-01-14T02:58:06.949Z,99126.86
2019-01-14T03:01:22.304Z,99115.77
2019-01-14T03:04:45.395Z,99112.45
2019-01-14T03:08:01.227Z,99113.50
2019-01-14T03:11:23.881Z,99114.77
2019-01-14T03:14:39.285Z,99108.33
2019-01-14T03:18:01.675Z,99119.19
2019-01-14T03:21:16.708Z,99106.54
2019-01-14T03:28:20.924Z,99137.50
2019-01-14T03:31:36.342Z,99139.34
2019-01-14T03:34:51.709Z,99079.37
2019-01-14T03:38:14.422Z,99141.28
2019-01-14T03:41:29.854Z,99137.87
2019-01-14T03:44:52.403Z,99108.72
2019-01-14T03:48:08.366Z,99143.52
2019-01-14T03:51:23.729Z,99152.80
2019-01-14T03:58:21.707Z,99162.45
2019-01-14T04:01:37.243Z,99171.55
2019-01-14T04:04:59.966Z,99181.48
2019-01-14T04:08:16.178Z,99181.70
2019-01-14T04:11:38.603Z,99183.48
2019-01-14T04:14:54.397Z,99188.67
2019-01-14T04:18:16.790Z,99187.23
2019-01-14T04:21:32.149Z,99106.81
2019-01-14T04:24:54.536Z,99180.63
2019-01-14T04:28:09.966Z,99188.16
2019-01-14T04:31:25.756Z,99197.06
2019-01-14T04:38:30.977Z,99203.73
2019-01-14T04:41:53.411Z,99216.81
2019-01-14T04:45:09.256Z,99169.98
2019-01-14T04:48:25.217Z,99212.06
2019-01-14T04:51:48.582Z,99216.33
2019-01-14T04:55:05.677Z,99227.09
2019-01-14T04:58:28.745Z,99218.13
2019-01-14T05:01:44.675Z,99220.96
2019-01-14T05:05:07.224Z,99225.80
2019-01-14T05:08:22.785Z,99226.08
2019-01-14T05:11:45.171Z,99180.42
2019-01-14T05:15:01.739Z,99230.48
2019-01-14T05:18:24.117Z,99241.33
2019-01-14T05:21:39.625Z,99241.42
2019-01-14T05:24:43.148Z,99234.88
2019-01-14T05:27:59.133Z,99234.88
2019-01-14T05:31:14.663Z,99246.46
2019-01-14T05:34:29.953Z,99253.59
2019-01-14T05:41:55.003Z,99266.30
2019-01-14T05:45:10.942Z,99275.81
2019-01-14T05:48:33.982Z,99274.42
2019-01-14T05:51:49.402Z,99280.88
2019-01-14T05:55:24.348Z,99276.22
2019-01-14T05:58:46.800Z,99287.36
2019-01-14T06:02:02.441Z,99283.89
2019-01-14T06:05:25.163Z,99297.97
2019-01-14T06:08:41.046Z,99307.50
2019-01-14T06:12:03.471Z,99308.98
2019-01-14T06:15:18.784Z,99314.08
2019-01-14T06:18:41.177Z,99325.11
2019-01-14T06:21:57.234Z,99331.92
2019-01-14T06:25:12.658Z,99330.70
2019-01-14T06:28:28.721Z,99317.11
2019-01-14T06:31:51.114Z,99333.06
2019-01-14T06:35:06.809Z,99327.33
2019-01-14T06:38:29.227Z,99339.23
2019-01-14T06:41:44.514Z,99338.10
2019-01-14T06:45:07.048Z,99339.08
2019-01-14T06:48:23.158Z,99356.34
2019-01-14T06:51:45.874Z,99356.39
2019-01-14T06:55:01.786Z,99365.11
2019-01-14T06:58:24.498Z,99371.34
2019-01-14T07:01:40.456Z,99373.95
2019-01-14T07:05:03.936Z,99375.36
2019-01-14T07:08:20.177Z,99385.33
2019-01-14T07:15:26.391Z,99398.41
2019-01-14T07:18:49.096Z,99411.59
2019-01-14T07:22:04.113Z,99421.34
2019-01-14T07:25:19.519Z,99436.14
2019-01-14T07:28:34.873Z,99451.39
2019-01-14T07:31:57.564Z,99457.80
2019-01-14T07:35:12.652Z,99463.95
2019-01-14T07:38:35.046Z,99466.97
2019-01-14T07:41:51.019Z,99443.33
2019-01-14T07:45:14.841Z,99486.20
2019-01-14T07:48:29.886Z,99491.60
2019-01-14T07:51:52.555Z,99509.10
2019-01-14T07:55:07.851Z,99513.00
2019-01-14T07:58:30.771Z,99503.70
2019-01-14T08:01:46.939Z,99505.53
2019-01-14T08:05:09.391Z,99517.16
2019-01-14T08:08:25.245Z,99522.98
2019-01-14T08:11:47.690Z,99542.77
2019-01-14T08:15:03.677Z,99548.41
2019-01-14T08:18:19.237Z,99479.81
2019-01-14T08:21:42.001Z,99544.84
2019-01-14T08:24:59.770Z,99549.61
2019-01-14T08:28:15.001Z,99553.19
2019-01-14T08:31:37.420Z,99548.66
2019-01-14T08:34:53.132Z,99550.76
2019-01-14T08:38:21.211Z,99565.08
2019-01-14T08:41:57.597Z,99564.86
2019-01-14T08:45:20.008Z,99567.03
2019-01-14T08:48:36.074Z,99578.34
2019-01-14T08:51:58.902Z,99591.17
2019-01-14T08:55:14.390Z,99584.47
2019-01-14T08:58:37.173Z,99591.19
2019-01-14T09:01:52.685Z,99590.25
2019-01-14T09:05:27.581Z,99615.30
2019-01-14T09:08:50.303Z,99623.83
2019-01-14T09:12:05.857Z,99630.63
2019-01-14T09:15:28.643Z,99636.39
2019-01-14T09:18:44.197Z,99635.27
2019-01-14T09:22:06.850Z,99642.52
2019-01-14T09:25:22.590Z,99643.81
2019-01-14T09:28:45.178Z,99654.80
2019-01-14T09:32:01.229Z,99650.34
2019-01-14T09:35:23.736Z,99648.13
2019-01-14T09:38:39.484Z,99571.64
2019-01-14T09:42:01.867Z,99657.47
2019-01-14T09:45:17.033Z,99661.71
2019-01-14T09:48:39.521Z,99668.84
2019-01-14T09:51:55.649Z,99666.23
2019-01-14T09:55:15.095Z,99675.38
2019-01-14T09:58:37.601Z,99684.77
2019-01-14T10:01:53.876Z,99614.45
2019-01-14T10:05:09.798Z,99692.61
2019-01-14T10:08:32.214Z,99705.25
2019-01-14T10:11:47.670Z,99706.94
2019-01-14T10:15:13.755Z,99713.99
2019-01-14T10:18:29.812Z,99717.88
2019-01-14T10:21:52.601Z,99703.87
2019-01-14T10:25:08.250Z,99716.51
2019-01-14T10:28:31.640Z,99721.81
2019-01-14T10:31:46.885Z,99724.84
2019-01-14T10:35:09.292Z,99733.75
2019-01-14T10:38:26.855Z,99696.82
2019-01-14T10:41:42.177Z,99728.84
2019-01-14T10:44:57.963Z,99729.94
2019-01-14T10:48:20.328Z,99729.88
2019-01-14T10:51:35.419Z,99730.75
2019-01-14T10:54:58.141Z,99725.22
2019-01-14T10:58:14.075Z,99718.24
2019-01-14T11:01:29.132Z,99748.52
2019-01-14T11:04:52.378Z,99735.50
2019-01-14T11:08:07.898Z,99745.84
2019-01-14T11:11:30.308Z,99731.63
2019-01-14T11:14:46.540Z,99747.53
2019-01-14T11:18:08.948Z,99745.46
2019-01-14T11:21:24.905Z,99752.78
2019-01-14T11:24:59.699Z,99685.21
2019-01-14T11:32:12.418Z,99756.81
2019-01-14T11:35:28.071Z,99769.13
2019-01-14T11:39:05.224Z,99769.98
2019-01-14T11:42:27.950Z,99700.34
2019-01-14T11:45:43.510Z,99769.66
2019-01-14T11:49:05.926Z,99771.45
2019-01-14T11:52:20.968Z,99776.45
2019-01-14T11:55:43.400Z,99793.59
2019-01-14T11:58:58.875Z,99795.83
2019-01-14T12:02:21.263Z,99720.13
2019-01-14T12:05:36.803Z,99717.94
2019-01-14T12:09:00.616Z,99801.61
2019-01-14T12:12:16.168Z,99789.64
2019-01-14T12:15:38.563Z,99796.64
2019-01-14T12:18:54.285Z,99785.25
2019-01-14T12:22:16.807Z,99797.84
2019-01-14T12:25:32.795Z,99806.42
2019-01-14T12:28:55.183Z,99807.73
2019-01-14T12:32:10.307Z,99821.22
2019-01-14T12:35:32.807Z,99818.39
2019-01-14T12:38:48.438Z,99821.98
2019-01-14T12:42:10.867Z,99822.53
2019-01-14T12:45:26.823Z,99759.80
2019-01-14T12:48:49.201Z,99832.50
2019-01-14T12:52:06.984Z,99830.80
2019-01-14T12:55:29.424Z,99830.03
2019-01-14T12:58:45.012Z,99841.36
2019-01-14T13:02:07.459Z,99836.64
2019-01-14T13:05:23.721Z,99766.86
2019-01-14T13:08:46.680Z,99800.30
2019-01-14T13:12:02.018Z,99840.38
2019-01-14T13:15:25.745Z,99847.48
2019-01-14T13:18:40.830Z,99847.63
2019-01-14T13:25:31.382Z,99838.78
2019-01-14T13:28:54.508Z,99834.30
2019-01-14T13:32:09.843Z,99805.99
2019-01-14T13:35:32.823Z,99835.11
2019-01-14T13:38:47.791Z,99812.41
2019-01-14T13:42:10.282Z,99847.82
2019-01-14T13:45:26.190Z,99854.30
2019-01-14T13:48:48.685Z,99854.40
2019-01-14T13:52:04.263Z,99879.05
2019-01-14T13:55:19.730Z,99882.03
2019-01-14T13:58:22.650Z,99889.92
2019-01-14T14:01:45.147Z,99896.14
2019-01-14T14:05:00.673Z,99884.88
2019-01-14T14:08:23.058Z,99905.41
2019-01-14T14:11:38.392Z,99900.63
2019-01-14T14:15:00.787Z,99932.55
2019-01-14T14:18:16.658Z,99934.74
2019-01-14T14:21:32.610Z,99931.64
2019-01-14T14:24:47.856Z,99946.56
2019-01-14T14:28:03.681Z,99950.97
2019-01-14T14:31:19.556Z,99972.83
2019-01-14T14:34:41.945Z,99969.83
2019-01-14T14:38:01.409Z,99981.17
2019-01-14T14:41:21.975Z,99989.52
2019-01-14T14:44:38.055Z,99989.99
2019-01-14T14:48:00.497Z,99987.71
2019-01-14T14:51:16.524Z,99988.65
2019-01-14T14:54:38.902Z,99989.02
2019-01-14T14:57:54.125Z,99989.90
2019-01-14T15:01:16.520Z,99956.78
2019-01-14T15:04:33.546Z,99996.06
2019-01-14T15:07:55.943Z,100004.44
2019-01-14T15:11:16.879Z,100021.06
2019-01-14T15:14:39.593Z,100016.28
2019-01-14T15:17:54.665Z,100006.64
2019-01-14T15:21:17.440Z,100028.06
2019-01-14T15:24:33.267Z,100032.02
2019-01-14T15:27:55.678Z,100032.53
2019-01-14T15:31:11.490Z,100046.48
2019-01-14T15:34:34.215Z,100048.70
2019-01-14T15:37:49.417Z,100065.73
2019-01-14T15:41:11.785Z,100069.70
2019-01-14T15:44:27.133Z,100072.75
2019-01-14T15:47:49.609Z,100076.70
2019-01-14T15:51:05.050Z,100079.29
2019-01-14T15:54:29.105Z,100079.31
2019-01-14T15:57:45.285Z,100084.11
2019-01-14T16:01:00.501Z,100081.92
2019-01-14T16:04:23.327Z,100085.84
2019-01-14T16:07:39.114Z,100085.05
2019-01-14T16:11:01.511Z,100093.34
2019-01-14T16:14:16.859Z,100097.70
2019-01-14T16:17:39.553Z,100100.76
2019-01-14T16:20:57.376Z,100102.92
2019-01-14T16:24:13.345Z,100102.09
2019-01-14T16:27:28.970Z,100109.51
2019-01-14T16:30:51.415Z,100074.55
2019-01-14T16:34:07.153Z,100116.50
2019-01-14T16:37:22.189Z,100117.84
2019-01-14T16:40:44.596Z,100038.31
2019-01-14T16:44:00.022Z,100126.58
2019-01-14T16:50:57.317Z,100129.22
2019-01-14T16:54:12.326Z,100133.16
2019-01-14T16:57:34.801Z,100140.59
2019-01-14T17:00:50.235Z,100146.69
2019-01-14T17:04:05.462Z,100147.58
2019-01-14T17:07:28.451Z,100140.60
2019-01-14T17:10:44.563Z,100160.72
2019-01-14T17:14:07.423Z,100137.52
2019-01-14T17:17:23.338Z,100150.20
2019-01-14T17:20:38.719Z,100167.70
2019-01-14T17:23:54.342Z,100168.16
2019-01-14T17:27:09.640Z,100176.44
2019-01-14T17:30:25.191Z,100182.13
2019-01-14T17:33:47.863Z,100183.45
2019-01-14T17:37:03.688Z,100183.00
2019-01-14T17:40:32.282Z,100190.87
2019-01-14T17:43:50.473Z,100157.64
2019-01-14T17:47:12.967Z,100187.81
2019-01-14T17:50:28.395Z,100205.73
2019-01-14T17:53:50.817Z,100195.70
2019-01-14T17:57:12.815Z,100209.70
2019-01-14T18:00:35.240Z,100218.42
2019-01-14T18:03:50.357Z,100225.39
2019-01-14T18:07:13.467Z,100232.39
2019-01-14T18:10:29.485Z,100239.81
2019-01-14T18:13:52.194Z,100238.47
2019-01-14T18:17:07.839Z,100177.16
2019-01-14T18:20:30.247Z,100252.04
2019-01-14T18:23:45.900Z,100253.76
2019-01-14T18:27:08.590Z,100251.08
2019-01-14T18:30:26.223Z,100258.60
2019-01-14T18:33:41.599Z,100269.97
2019-01-14T18:37:04.329Z,100210.34
2019-01-14T18:40:33.541Z,100275.16
2019-01-14T18:44:03.620Z,100277.41
2019-01-14T18:47:26.021Z,100297.87
2019-01-14T18:50:41.410Z,100300.10
2019-01-14T18:53:56.957Z,100260.73
2019-01-14T18:57:19.336Z,100270.80
2019-01-14T19:00:35.523Z,100314.17
2019-01-14T19:03:58.876Z,100314.14
2019-01-14T19:07:14.611Z,100318.05
2019-01-14T19:10:30.196Z,100320.70
2019-01-14T19:13:52.614Z,100321.58
2019-01-14T19:17:08.655Z,100324.55
2019-01-14T19:20:25.806Z,100285.97
2019-01-14T19:23:48.181Z,100328.56
2019-01-14T19:27:04.013Z,100329.83
2019-01-14T19:30:26.777Z,100341.20
2019-01-14T19:33:49.208Z,100334.57
2019-01-14T19:37:11.615Z,100341.16
2019-01-14T19:40:26.929Z,100343.36
2019-01-14T19:43:49.621Z,100346.47
2019-01-14T19:47:05.356Z,100349.02
2019-01-14T19:50:27.735Z,100259.71
2019-01-14T19:53:43.266Z,100347.73
2019-01-14T19:57:05.666Z,100350.33
2019-01-14T20:00:22.542Z,100356.39
2019-01-14T20:03:44.959Z,100358.15
2019-01-14T20:07:11.149Z,100356.95
2019-01-14T20:10:31.291Z,100355.95
2019-01-14T20:13:46.491Z,100364.27
2019-01-14T20:17:09.294Z,100359.48
2019-01-14T20:20:25.389Z,100359.06
2019-01-14T20:23:52.294Z,100362.98
2019-01-14T20:27:25.751Z,100367.34
2019-01-14T20:30:48.278Z,100372.23
2019-01-14T20:34:03.885Z,100334.94
2019-01-14T20:37:26.854Z,100284.53
2019-01-14T20:40:42.828Z,100388.77
2019-01-14T20:44:05.653Z,100379.95
2019-01-14T20:47:42.518Z,100382.14
2019-01-14T20:51:05.760Z,100386.06
2019-01-14T20:54:41.722Z,100392.19
2019-01-14T20:58:04.118Z,100389.48
2019-01-14T21:01:19.920Z,100387.78
2019-01-14T21:04:22.870Z,100391.74
2019-01-14T21:07:38.537Z,100393.09
2019-01-14T21:11:01.304Z,100353.16
2019-01-14T21:14:17.355Z,100387.88
2019-01-14T21:17:32.348Z,100385.27
2019-01-14T21:20:54.791Z,100389.70
2019-01-14T21:24:09.888Z,100392.68
2019-01-14T21:27:25.293Z,100384.45
2019-01-14T21:30:47.731Z,100390.97
2019-01-14T21:34:03.220Z,100399.64
2019-01-14T21:37:18.929Z,100395.73
2019-01-14T21:40:41.416Z,100401.39
2019-01-14T21:43:57.289Z,100407.91
2019-01-14T21:47:19.717Z,100399.66
2019-01-14T21:50:35.125Z,100410.52
2019-01-14T21:53:57.841Z,100405.74
2019-01-14T21:57:13.824Z,100401.75
2019-01-14T22:00:36.447Z,100400.05
2019-01-14T22:03:51.694Z,100402.20
2019-01-14T22:07:14.378Z,100408.23
2019-01-14T22:10:30.226Z,100404.27
2019-01-14T22:13:52.709Z,100404.75
2019-01-14T22:17:09.771Z,100410.50
2019-01-14T22:20:25.650Z,100411.82
2019-01-14T22:23:41.161Z,100402.92
2019-01-14T22:26:56.349Z,100406.42
2019-01-14T22:30:13.192Z,100411.70
2019-01-14T22:33:35.857Z,100419.45
2019-01-14T22:36:51.360Z,100341.98
2019-01-14T22:40:14.013Z,100411.31
2019-01-14T22:43:30.292Z,100423.17
2019-01-14T22:46:52.773Z,100416.04
2019-01-14T22:50:10.233Z,100422.60
2019-01-14T22:53:32.647Z,100418.64
2019-01-14T22:56:48.420Z,100419.91
2019-01-14T23:04:14.851Z,100423.39
2019-01-14T23:07:30.294Z,100421.82
2019-01-14T23:10:52.739Z,100429.37
2019-01-14T23:14:08.281Z,100423.66
2019-01-14T23:17:31.180Z,100417.22
2019-01-14T23:20:46.808Z,100422.92
2019-01-14T23:24:02.541Z,100422.89
2019-01-14T23:27:25.062Z,100415.42
2019-01-14T23:30:40.114Z,100398.73
2019-01-14T23:33:55.520Z,100416.59
2019-01-14T23:37:18.283Z,100420.59
2019-01-14T23:40:33.659Z,100419.23
2019-01-14T23:43:56.222Z,100416.50
2019-01-14T23:47:12.156Z,100419.09
2019-01-14T23:50:34.630Z,100395.01
2019-01-14T23:53:49.805Z,100418.27
2019-01-14T23:57:13.595Z,100422.52
